sensor_id;sensor_type;location;lat;lon;timestamp;temperature;humidity
26821;DHT22;37186;51.394;5.454;2023-07-13T00:00:07;20.40;59.70
26821;DHT22;37186;51.394;5.454;2023-07-13T00:03:10;20.40;59.80
26821;DHT22;37186;51.394;5.454;2023-07-13T00:06:13;20.40;60.60
26821;DHT22;37186;51.394;5.454;2023-07-13T00:09:15;20.40;59.80
26821;DHT22;37186;51.394;5.454;2023-07-13T00:12:32;20.40;60.00
26821;DHT22;37186;51.394;5.454;2023-07-13T00:15:33;20.30;59.90
26821;DHT22;37186;51.394;5.454;2023-07-13T00:18:36;20.30;59.90
26821;DHT22;37186;51.394;5.454;2023-07-13T00:21:39;20.30;60.00
26821;DHT22;37186;51.394;5.454;2023-07-13T00:24:39;20.30;60.00
26821;DHT22;37186;51.394;5.454;2023-07-13T00:27:43;20.30;60.10
26821;DHT22;37186;51.394;5.454;2023-07-13T00:30:44;20.20;60.00
26821;DHT22;37186;51.394;5.454;2023-07-13T00:33:45;20.20;60.30
26821;DHT22;37186;51.394;5.454;2023-07-13T00:36:45;20.20;60.00
26821;DHT22;37186;51.394;5.454;2023-07-13T00:39:46;20.20;60.10
26821;DHT22;37186;51.394;5.454;2023-07-13T00:42:46;20.20;60.10
26821;DHT22;37186;51.394;5.454;2023-07-13T00:48:49;20.10;60.10
26821;DHT22;37186;51.394;5.454;2023-07-13T00:52:16;20.10;60.10
26821;DHT22;37186;51.394;5.454;2023-07-13T00:55:17;20.10;60.30
26821;DHT22;37186;51.394;5.454;2023-07-13T00:58:18;20.10;60.30
26821;DHT22;37186;51.394;5.454;2023-07-13T01:01:19;20.10;60.30
26821;DHT22;37186;51.394;5.454;2023-07-13T01:04:20;20.00;60.20
26821;DHT22;37186;51.394;5.454;2023-07-13T01:07:21;20.00;60.30
26821;DHT22;37186;51.394;5.454;2023-07-13T01:10:22;20.00;60.20
26821;DHT22;37186;51.394;5.454;2023-07-13T01:13:24;20.00;60.40
26821;DHT22;37186;51.394;5.454;2023-07-13T01:16:36;20.00;60.60
26821;DHT22;37186;51.394;5.454;2023-07-13T01:19:40;20.00;60.40
26821;DHT22;37186;51.394;5.454;2023-07-13T01:22:41;20.00;60.70
26821;DHT22;37186;51.394;5.454;2023-07-13T01:25:42;20.00;60.50
26821;DHT22;37186;51.394;5.454;2023-07-13T01:28:43;19.90;60.70
26821;DHT22;37186;51.394;5.454;2023-07-13T01:31:44;19.90;60.60
26821;DHT22;37186;51.394;5.454;2023-07-13T01:34:45;19.90;60.60
26821;DHT22;37186;51.394;5.454;2023-07-13T01:37:47;19.90;60.80
26821;DHT22;37186;51.394;5.454;2023-07-13T01:40:47;19.90;60.60
26821;DHT22;37186;51.394;5.454;2023-07-13T01:43:48;19.90;60.80
26821;DHT22;37186;51.394;5.454;2023-07-13T01:46:49;19.80;60.80
26821;DHT22;37186;51.394;5.454;2023-07-13T01:49:49;19.80;60.80
26821;DHT22;37186;51.394;5.454;2023-07-13T01:52:52;19.80;60.90
26821;DHT22;37186;51.394;5.454;2023-07-13T01:55:53;19.80;60.90
26821;DHT22;37186;51.394;5.454;2023-07-13T01:58:54;19.80;60.90
26821;DHT22;37186;51.394;5.454;2023-07-13T02:01:54;19.70;61.00
26821;DHT22;37186;51.394;5.454;2023-07-13T02:04:55;19.70;60.90
26821;DHT22;37186;51.394;5.454;2023-07-13T02:07:55;19.70;61.00
26821;DHT22;37186;51.394;5.454;2023-07-13T02:10:56;19.70;61.00
26821;DHT22;37186;51.394;5.454;2023-07-13T02:13:57;19.70;61.00
26821;DHT22;37186;51.394;5.454;2023-07-13T02:16:57;19.60;60.90
26821;DHT22;37186;51.394;5.454;2023-07-13T02:19:58;19.60;61.00
26821;DHT22;37186;51.394;5.454;2023-07-13T02:22:59;19.60;61.00
26821;DHT22;37186;51.394;5.454;2023-07-13T02:26:01;19.60;61.00
26821;DHT22;37186;51.394;5.454;2023-07-13T02:29:03;19.50;61.20
26821;DHT22;37186;51.394;5.454;2023-07-13T02:32:03;19.50;61.20
26821;DHT22;37186;51.394;5.454;2023-07-13T02:35:05;19.50;61.20
26821;DHT22;37186;51.394;5.454;2023-07-13T02:38:05;19.50;61.20
26821;DHT22;37186;51.394;5.454;2023-07-13T02:41:07;19.50;61.50
26821;DHT22;37186;51.394;5.454;2023-07-13T02:44:09;19.50;61.10
26821;DHT22;37186;51.394;5.454;2023-07-13T02:47:10;19.40;61.40
26821;DHT22;37186;51.394;5.454;2023-07-13T02:50:10;19.40;61.40
26821;DHT22;37186;51.394;5.454;2023-07-13T02:53:11;19.40;61.40
26821;DHT22;37186;51.394;5.454;2023-07-13T02:56:12;19.40;61.10
26821;DHT22;37186;51.394;5.454;2023-07-13T02:59:13;19.40;61.50
26821;DHT22;37186;51.394;5.454;2023-07-13T03:02:13;19.30;61.40
26821;DHT22;37186;51.394;5.454;2023-07-13T03:05:14;19.30;61.50
26821;DHT22;37186;51.394;5.454;2023-07-13T03:08:15;19.30;61.40
26821;DHT22;37186;51.394;5.454;2023-07-13T03:11:18;19.30;61.40
26821;DHT22;37186;51.394;5.454;2023-07-13T03:14:19;19.30;61.70
26821;DHT22;37186;51.394;5.454;2023-07-13T03:17:20;19.30;61.70
26821;DHT22;37186;51.394;5.454;2023-07-13T03:20:21;19.20;61.70
26821;DHT22;37186;51.394;5.454;2023-07-13T03:23:22;19.20;62.20
26821;DHT22;37186;51.394;5.454;2023-07-13T03:26:23;19.20;61.80
26821;DHT22;37186;51.394;5.454;2023-07-13T03:29:24;19.20;62.10
26821;DHT22;37186;51.394;5.454;2023-07-13T03:32:24;19.20;61.70
26821;DHT22;37186;51.394;5.454;2023-07-13T03:35:25;19.10;61.80
26821;DHT22;37186;51.394;5.454;2023-07-13T03:38:26;19.10;61.70
26821;DHT22;37186;51.394;5.454;2023-07-13T03:41:27;19.10;62.00
26821;DHT22;37186;51.394;5.454;2023-07-13T03:44:27;19.10;62.80
26821;DHT22;37186;51.394;5.454;2023-07-13T03:47:28;19.10;62.10
26821;DHT22;37186;51.394;5.454;2023-07-13T03:50:29;19.10;62.10
26821;DHT22;37186;51.394;5.454;2023-07-13T03:53:29;19.10;62.20
26821;DHT22;37186;51.394;5.454;2023-07-13T03:56:30;19.00;62.00
26821;DHT22;37186;51.394;5.454;2023-07-13T03:59:33;19.00;62.00
26821;DHT22;37186;51.394;5.454;2023-07-13T04:02:34;19.00;62.10
26821;DHT22;37186;51.394;5.454;2023-07-13T04:05:34;19.00;62.40
26821;DHT22;37186;51.394;5.454;2023-07-13T04:08:36;18.90;62.20
26821;DHT22;37186;51.394;5.454;2023-07-13T04:11:37;18.90;61.90
26821;DHT22;37186;51.394;5.454;2023-07-13T04:14:38;18.90;62.30
26821;DHT22;37186;51.394;5.454;2023-07-13T04:17:40;18.90;62.20
26821;DHT22;37186;51.394;5.454;2023-07-13T04:20:40;18.90;62.30
26821;DHT22;37186;51.394;5.454;2023-07-13T04:23:41;18.90;62.20
26821;DHT22;37186;51.394;5.454;2023-07-13T04:26:41;18.90;62.30
26821;DHT22;37186;51.394;5.454;2023-07-13T04:29:42;18.80;62.50
26821;DHT22;37186;51.394;5.454;2023-07-13T04:32:43;18.80;62.30
26821;DHT22;37186;51.394;5.454;2023-07-13T04:35:44;18.80;62.30
26821;DHT22;37186;51.394;5.454;2023-07-13T04:38:47;18.80;62.30
26821;DHT22;37186;51.394;5.454;2023-07-13T04:41:47;18.80;62.50
26821;DHT22;37186;51.394;5.454;2023-07-13T04:44:51;18.80;62.40
26821;DHT22;37186;51.394;5.454;2023-07-13T04:47:52;18.80;62.70
26821;DHT22;37186;51.394;5.454;2023-07-13T04:50:57;18.80;62.60
26821;DHT22;37186;51.394;5.454;2023-07-13T04:53:58;18.80;62.40
26821;DHT22;37186;51.394;5.454;2023-07-13T04:56:59;18.80;62.40
26821;DHT22;37186;51.394;5.454;2023-07-13T05:00:00;18.90;62.60
26821;DHT22;37186;51.394;5.454;2023-07-13T05:03:02;18.90;62.90
26821;DHT22;37186;51.394;5.454;2023-07-13T05:06:07;18.90;62.80
26821;DHT22;37186;51.394;5.454;2023-07-13T05:09:10;18.90;62.90
26821;DHT22;37186;51.394;5.454;2023-07-13T05:12:12;18.90;62.80
26821;DHT22;37186;51.394;5.454;2023-07-13T05:15:13;19.00;62.80
26821;DHT22;37186;51.394;5.454;2023-07-13T05:18:14;19.00;63.00
26821;DHT22;37186;51.394;5.454;2023-07-13T05:21:15;19.00;63.10
26821;DHT22;37186;51.394;5.454;2023-07-13T05:24:15;19.00;63.00
26821;DHT22;37186;51.394;5.454;2023-07-13T05:27:16;19.10;63.20
26821;DHT22;37186;51.394;5.454;2023-07-13T05:30:17;19.10;63.60
26821;DHT22;37186;51.394;5.454;2023-07-13T05:33:17;19.10;64.10
26821;DHT22;37186;51.394;5.454;2023-07-13T05:36:18;19.10;63.20
26821;DHT22;37186;51.394;5.454;2023-07-13T05:39:19;19.20;63.20
26821;DHT22;37186;51.394;5.454;2023-07-13T05:42:19;19.20;63.20
26821;DHT22;37186;51.394;5.454;2023-07-13T05:45:20;19.20;63.70
26821;DHT22;37186;51.394;5.454;2023-07-13T05:48:20;19.20;63.20
26821;DHT22;37186;51.394;5.454;2023-07-13T05:51:21;19.30;63.30
26821;DHT22;37186;51.394;5.454;2023-07-13T05:54:22;19.30;63.40
26821;DHT22;37186;51.394;5.454;2023-07-13T05:57:22;19.30;63.20
26821;DHT22;37186;51.394;5.454;2023-07-13T06:00:23;19.30;63.20
26821;DHT22;37186;51.394;5.454;2023-07-13T06:03:24;19.30;63.30
26821;DHT22;37186;51.394;5.454;2023-07-13T06:06:25;19.40;63.40
26821;DHT22;37186;51.394;5.454;2023-07-13T06:09:26;19.40;63.50
26821;DHT22;37186;51.394;5.454;2023-07-13T06:12:27;19.40;63.30
26821;DHT22;37186;51.394;5.454;2023-07-13T06:15:27;19.40;63.50
26821;DHT22;37186;51.394;5.454;2023-07-13T06:18:28;19.40;64.40
26821;DHT22;37186;51.394;5.454;2023-07-13T06:21:28;19.50;63.70
26821;DHT22;37186;51.394;5.454;2023-07-13T06:24:29;19.50;63.70
26821;DHT22;37186;51.394;5.454;2023-07-13T06:27:30;19.50;63.50
26821;DHT22;37186;51.394;5.454;2023-07-13T06:30:30;19.50;63.50
26821;DHT22;37186;51.394;5.454;2023-07-13T06:33:32;19.50;63.60
26821;DHT22;37186;51.394;5.454;2023-07-13T06:36:33;19.50;63.70
26821;DHT22;37186;51.394;5.454;2023-07-13T06:39:34;19.60;63.80
26821;DHT22;37186;51.394;5.454;2023-07-13T06:42:34;19.60;63.70
26821;DHT22;37186;51.394;5.454;2023-07-13T06:45:41;19.60;63.80
26821;DHT22;37186;51.394;5.454;2023-07-13T06:48:42;19.60;64.00
26821;DHT22;37186;51.394;5.454;2023-07-13T06:51:43;19.60;63.70
26821;DHT22;37186;51.394;5.454;2023-07-13T06:54:43;19.60;63.80
26821;DHT22;37186;51.394;5.454;2023-07-13T06:57:44;19.70;64.80
26821;DHT22;37186;51.394;5.454;2023-07-13T07:00:45;19.70;63.90
26821;DHT22;37186;51.394;5.454;2023-07-13T07:03:46;19.70;64.90
26821;DHT22;37186;51.394;5.454;2023-07-13T07:06:47;19.80;64.20
26821;DHT22;37186;51.394;5.454;2023-07-13T07:09:48;19.70;64.30
26821;DHT22;37186;51.394;5.454;2023-07-13T07:12:48;19.80;64.60
26821;DHT22;37186;51.394;5.454;2023-07-13T07:15:50;19.80;64.40
26821;DHT22;37186;51.394;5.454;2023-07-13T07:18:50;19.80;64.20
26821;DHT22;37186;51.394;5.454;2023-07-13T07:21:51;19.80;64.00
26821;DHT22;37186;51.394;5.454;2023-07-13T07:24:52;19.80;64.00
26821;DHT22;37186;51.394;5.454;2023-07-13T07:27:52;19.80;64.20
26821;DHT22;37186;51.394;5.454;2023-07-13T07:30:55;19.80;64.20
26821;DHT22;37186;51.394;5.454;2023-07-13T07:33:55;19.90;64.20
26821;DHT22;37186;51.394;5.454;2023-07-13T07:36:59;19.90;64.30
26821;DHT22;37186;51.394;5.454;2023-07-13T07:40:01;19.90;65.10
26821;DHT22;37186;51.394;5.454;2023-07-13T07:43:01;19.90;64.30
26821;DHT22;37186;51.394;5.454;2023-07-13T07:46:03;19.90;64.20
26821;DHT22;37186;51.394;5.454;2023-07-13T07:49:03;20.00;64.30
26821;DHT22;37186;51.394;5.454;2023-07-13T07:52:04;20.00;64.50
26821;DHT22;37186;51.394;5.454;2023-07-13T07:55:06;20.00;64.40
26821;DHT22;37186;51.394;5.454;2023-07-13T07:58:07;20.00;64.90
26821;DHT22;37186;51.394;5.454;2023-07-13T08:01:08;20.00;65.00
26821;DHT22;37186;51.394;5.454;2023-07-13T08:04:09;20.10;64.80
26821;DHT22;37186;51.394;5.454;2023-07-13T08:07:09;20.10;64.90
26821;DHT22;37186;51.394;5.454;2023-07-13T08:10:10;20.10;64.80
26821;DHT22;37186;51.394;5.454;2023-07-13T08:13:11;20.10;64.90
26821;DHT22;37186;51.394;5.454;2023-07-13T08:16:12;20.20;65.00
26821;DHT22;37186;51.394;5.454;2023-07-13T08:19:12;20.20;65.00
26821;DHT22;37186;51.394;5.454;2023-07-13T08:22:13;20.30;65.40
26821;DHT22;37186;51.394;5.454;2023-07-13T08:25:14;20.30;65.60
26821;DHT22;37186;51.394;5.454;2023-07-13T08:28:14;20.30;64.90
26821;DHT22;37186;51.394;5.454;2023-07-13T08:31:15;20.40;65.50
26821;DHT22;37186;51.394;5.454;2023-07-13T08:34:16;20.40;65.00
26821;DHT22;37186;51.394;5.454;2023-07-13T08:37:17;20.40;64.90
26821;DHT22;37186;51.394;5.454;2023-07-13T08:40:19;20.50;65.10
26821;DHT22;37186;51.394;5.454;2023-07-13T08:43:35;20.50;65.10
26821;DHT22;37186;51.394;5.454;2023-07-13T08:46:38;20.50;65.00
26821;DHT22;37186;51.394;5.454;2023-07-13T08:49:41;20.60;65.60
26821;DHT22;37186;51.394;5.454;2023-07-13T08:52:43;20.60;65.10
26821;DHT22;37186;51.394;5.454;2023-07-13T08:55:44;20.60;65.10
26821;DHT22;37186;51.394;5.454;2023-07-13T08:58:48;20.70;65.70
26821;DHT22;37186;51.394;5.454;2023-07-13T09:05:28;20.70;65.10
26821;DHT22;37186;51.394;5.454;2023-07-13T09:08:37;20.70;65.00
26821;DHT22;37186;51.394;5.454;2023-07-13T09:14:45;20.80;65.40
26821;DHT22;37186;51.394;5.454;2023-07-13T09:17:51;20.80;65.20
26821;DHT22;37186;51.394;5.454;2023-07-13T09:20:57;20.80;65.20
26821;DHT22;37186;51.394;5.454;2023-07-13T09:24:24;20.80;65.40
26821;DHT22;37186;51.394;5.454;2023-07-13T09:27:35;20.90;65.10
26821;DHT22;37186;51.394;5.454;2023-07-13T09:33:40;21.00;65.20
26821;DHT22;37186;51.394;5.454;2023-07-13T09:36:41;21.00;65.00
26821;DHT22;37186;51.394;5.454;2023-07-13T09:39:42;21.00;65.10
26821;DHT22;37186;51.394;5.454;2023-07-13T09:42:43;21.00;65.20
26821;DHT22;37186;51.394;5.454;2023-07-13T09:45:46;21.00;65.20
26821;DHT22;37186;51.394;5.454;2023-07-13T09:48:48;21.10;65.30
26821;DHT22;37186;51.394;5.454;2023-07-13T09:52:00;21.10;65.50
26821;DHT22;37186;51.394;5.454;2023-07-13T09:55:02;21.20;66.00
26821;DHT22;37186;51.394;5.454;2023-07-13T09:58:26;21.20;65.50
26821;DHT22;37186;51.394;5.454;2023-07-13T10:01:37;21.30;65.40
26821;DHT22;37186;51.394;5.454;2023-07-13T10:04:38;21.30;65.40
26821;DHT22;37186;51.394;5.454;2023-07-13T10:07:42;21.40;65.40
26821;DHT22;37186;51.394;5.454;2023-07-13T10:10:44;21.40;65.40
26821;DHT22;37186;51.394;5.454;2023-07-13T10:14:00;21.40;66.10
26821;DHT22;37186;51.394;5.454;2023-07-13T10:17:04;21.50;65.40
26821;DHT22;37186;51.394;5.454;2023-07-13T10:20:05;21.50;65.40
26821;DHT22;37186;51.394;5.454;2023-07-13T10:23:15;21.50;65.30
26821;DHT22;37186;51.394;5.454;2023-07-13T10:26:33;21.60;65.60
26821;DHT22;37186;51.394;5.454;2023-07-13T10:29:38;21.70;65.50
26821;DHT22;37186;51.394;5.454;2023-07-13T10:32:41;21.70;65.70
26821;DHT22;37186;51.394;5.454;2023-07-13T10:35:43;21.70;65.50
26821;DHT22;37186;51.394;5.454;2023-07-13T10:38:47;21.80;65.50
26821;DHT22;37186;51.394;5.454;2023-07-13T10:42:05;21.80;65.40
26821;DHT22;37186;51.394;5.454;2023-07-13T10:45:20;21.90;65.40
26821;DHT22;37186;51.394;5.454;2023-07-13T10:48:23;21.90;65.30
26821;DHT22;37186;51.394;5.454;2023-07-13T10:51:24;22.00;65.00
26821;DHT22;37186;51.394;5.454;2023-07-13T10:54:34;22.00;64.90
26821;DHT22;37186;51.394;5.454;2023-07-13T10:57:42;22.00;64.90
26821;DHT22;37186;51.394;5.454;2023-07-13T11:00:57;22.00;65.00
26821;DHT22;37186;51.394;5.454;2023-07-13T11:04:01;22.00;65.00
26821;DHT22;37186;51.394;5.454;2023-07-13T11:07:17;22.10;65.20
26821;DHT22;37186;51.394;5.454;2023-07-13T11:16:49;22.20;65.40
26821;DHT22;37186;51.394;5.454;2023-07-13T11:19:51;22.20;65.30
26821;DHT22;37186;51.394;5.454;2023-07-13T11:23:18;22.30;65.20
26821;DHT22;37186;51.394;5.454;2023-07-13T11:26:39;22.30;65.10
26821;DHT22;37186;51.394;5.454;2023-07-13T11:29:40;22.40;65.20
26821;DHT22;37186;51.394;5.454;2023-07-13T11:32:41;22.40;65.10
26821;DHT22;37186;51.394;5.454;2023-07-13T11:39:20;22.50;65.20
26821;DHT22;37186;51.394;5.454;2023-07-13T11:42:23;22.50;64.80
26821;DHT22;37186;51.394;5.454;2023-07-13T11:45:24;22.50;64.80
26821;DHT22;37186;51.394;5.454;2023-07-13T11:48:28;22.60;64.70
26821;DHT22;37186;51.394;5.454;2023-07-13T11:51:31;22.60;64.80
26821;DHT22;37186;51.394;5.454;2023-07-13T11:54:48;22.60;64.80
26821;DHT22;37186;51.394;5.454;2023-07-13T11:57:56;22.70;64.90
26821;DHT22;37186;51.394;5.454;2023-07-13T12:01:00;22.70;64.50
26821;DHT22;37186;51.394;5.454;2023-07-13T12:04:03;22.80;65.40
26821;DHT22;37186;51.394;5.454;2023-07-13T12:07:06;22.90;64.80
26821;DHT22;37186;51.394;5.454;2023-07-13T12:13:12;23.00;64.60
26821;DHT22;37186;51.394;5.454;2023-07-13T12:16:31;23.10;64.70
26821;DHT22;37186;51.394;5.454;2023-07-13T12:19:33;23.10;63.00
26821;DHT22;37186;51.394;5.454;2023-07-13T12:22:34;23.20;63.50
26821;DHT22;37186;51.394;5.454;2023-07-13T12:25:35;23.30;63.10
26821;DHT22;37186;51.394;5.454;2023-07-13T12:28:54;23.30;63.30
26821;DHT22;37186;51.394;5.454;2023-07-13T12:31:57;23.30;62.70
26821;DHT22;37186;51.394;5.454;2023-07-13T12:35:15;23.40;62.00
26821;DHT22;37186;51.394;5.454;2023-07-13T12:38:16;23.40;62.70
26821;DHT22;37186;51.394;5.454;2023-07-13T12:41:17;23.40;62.60
26821;DHT22;37186;51.394;5.454;2023-07-13T12:44:28;23.50;62.30
26821;DHT22;37186;51.394;5.454;2023-07-13T12:47:30;23.50;61.50
26821;DHT22;37186;51.394;5.454;2023-07-13T12:50:39;23.50;62.10
26821;DHT22;37186;51.394;5.454;2023-07-13T12:53:47;23.40;61.70
26821;DHT22;37186;51.394;5.454;2023-07-13T12:56:53;23.40;62.10
26821;DHT22;37186;51.394;5.454;2023-07-13T12:59:54;23.40;62.00
26821;DHT22;37186;51.394;5.454;2023-07-13T13:02:56;23.40;62.00
26821;DHT22;37186;51.394;5.454;2023-07-13T13:06:05;23.40;62.20
26821;DHT22;37186;51.394;5.454;2023-07-13T13:09:15;23.30;62.30
26821;DHT22;37186;51.394;5.454;2023-07-13T13:12:16;23.30;62.40
26821;DHT22;37186;51.394;5.454;2023-07-13T13:15:17;23.30;62.50
26821;DHT22;37186;51.394;5.454;2023-07-13T13:18:20;23.20;62.60
26821;DHT22;37186;51.394;5.454;2023-07-13T13:21:23;23.20;62.80
26821;DHT22;37186;51.394;5.454;2023-07-13T13:24:26;23.10;62.90
26821;DHT22;37186;51.394;5.454;2023-07-13T13:27:27;23.10;63.40
26821;DHT22;37186;51.394;5.454;2023-07-13T13:30:27;23.00;63.20
26821;DHT22;37186;51.394;5.454;2023-07-13T13:33:28;23.00;63.00
26821;DHT22;37186;51.394;5.454;2023-07-13T13:36:29;23.00;63.30
26821;DHT22;37186;51.394;5.454;2023-07-13T13:39:34;23.00;63.50
26821;DHT22;37186;51.394;5.454;2023-07-13T13:42:35;22.90;63.50
26821;DHT22;37186;51.394;5.454;2023-07-13T13:45:36;22.90;63.80
26821;DHT22;37186;51.394;5.454;2023-07-13T13:48:36;22.90;64.10
26821;DHT22;37186;51.394;5.454;2023-07-13T13:51:37;22.90;63.90
26821;DHT22;37186;51.394;5.454;2023-07-13T13:54:38;22.90;64.00
26821;DHT22;37186;51.394;5.454;2023-07-13T13:57:38;22.90;64.00
26821;DHT22;37186;51.394;5.454;2023-07-13T14:00:39;22.80;63.90
26821;DHT22;37186;51.394;5.454;2023-07-13T14:03:40;22.80;63.90
26821;DHT22;37186;51.394;5.454;2023-07-13T14:06:41;22.80;64.00
26821;DHT22;37186;51.394;5.454;2023-07-13T14:09:42;22.80;64.00
26821;DHT22;37186;51.394;5.454;2023-07-13T14:12:44;22.80;64.20
26821;DHT22;37186;51.394;5.454;2023-07-13T14:15:46;22.80;64.30
26821;DHT22;37186;51.394;5.454;2023-07-13T14:18:48;22.80;64.30
26821;DHT22;37186;51.394;5.454;2023-07-13T14:21:49;22.70;64.30
26821;DHT22;37186;51.394;5.454;2023-07-13T14:24:51;22.70;64.20
26821;DHT22;37186;51.394;5.454;2023-07-13T14:27:55;22.70;64.30
26821;DHT22;37186;51.394;5.454;2023-07-13T14:30:59;22.70;64.30
26821;DHT22;37186;51.394;5.454;2023-07-13T14:33:59;22.70;64.30
26821;DHT22;37186;51.394;5.454;2023-07-13T14:37:00;22.70;64.70
26821;DHT22;37186;51.394;5.454;2023-07-13T14:40:01;22.70;64.30
26821;DHT22;37186;51.394;5.454;2023-07-13T14:43:01;22.70;64.40
26821;DHT22;37186;51.394;5.454;2023-07-13T14:46:02;22.70;64.50
26821;DHT22;37186;51.394;5.454;2023-07-13T14:52:25;22.70;64.50
26821;DHT22;37186;51.394;5.454;2023-07-13T14:55:26;22.70;64.80
26821;DHT22;37186;51.394;5.454;2023-07-13T14:58:27;22.70;64.70
26821;DHT22;37186;51.394;5.454;2023-07-13T15:01:28;22.70;64.50
26821;DHT22;37186;51.394;5.454;2023-07-13T15:04:30;22.70;64.70
26821;DHT22;37186;51.394;5.454;2023-07-13T15:07:31;22.70;64.80
26821;DHT22;37186;51.394;5.454;2023-07-13T15:10:33;22.80;65.00
26821;DHT22;37186;51.394;5.454;2023-07-13T15:13:34;22.90;65.00
26821;DHT22;37186;51.394;5.454;2023-07-13T15:16:35;22.90;64.90
26821;DHT22;37186;51.394;5.454;2023-07-13T15:19:36;23.00;64.90
26821;DHT22;37186;51.394;5.454;2023-07-13T15:22:36;23.00;64.90
26821;DHT22;37186;51.394;5.454;2023-07-13T15:25:37;23.10;65.00
26821;DHT22;37186;51.394;5.454;2023-07-13T15:28:38;23.10;65.40
26821;DHT22;37186;51.394;5.454;2023-07-13T15:31:39;23.30;66.00
26821;DHT22;37186;51.394;5.454;2023-07-13T15:34:40;23.40;66.10
26821;DHT22;37186;51.394;5.454;2023-07-13T15:37:41;23.60;66.00
26821;DHT22;37186;51.394;5.454;2023-07-13T15:40:42;23.70;65.90
26821;DHT22;37186;51.394;5.454;2023-07-13T15:43:43;23.80;65.60
26821;DHT22;37186;51.394;5.454;2023-07-13T15:46:44;23.90;65.40
26821;DHT22;37186;51.394;5.454;2023-07-13T15:49:44;24.10;65.20
26821;DHT22;37186;51.394;5.454;2023-07-13T15:52:48;24.10;64.70
26821;DHT22;37186;51.394;5.454;2023-07-13T15:55:50;24.10;64.40
26821;DHT22;37186;51.394;5.454;2023-07-13T15:58:52;24.10;64.20
26821;DHT22;37186;51.394;5.454;2023-07-13T16:01:53;24.20;64.00
26821;DHT22;37186;51.394;5.454;2023-07-13T16:04:54;24.10;63.80
26821;DHT22;37186;51.394;5.454;2023-07-13T16:07:55;24.10;63.70
26821;DHT22;37186;51.394;5.454;2023-07-13T16:10:59;24.10;63.50
26821;DHT22;37186;51.394;5.454;2023-07-13T16:14:00;24.10;63.30
26821;DHT22;37186;51.394;5.454;2023-07-13T16:17:00;24.00;63.20
26821;DHT22;37186;51.394;5.454;2023-07-13T16:20:01;24.00;63.10
26821;DHT22;37186;51.394;5.454;2023-07-13T16:23:02;23.90;63.00
26821;DHT22;37186;51.394;5.454;2023-07-13T16:26:04;23.90;63.00
26821;DHT22;37186;51.394;5.454;2023-07-13T16:29:19;23.80;63.00
26821;DHT22;37186;51.394;5.454;2023-07-13T16:32:20;23.80;63.00
26821;DHT22;37186;51.394;5.454;2023-07-13T16:35:23;23.70;63.00
26821;DHT22;37186;51.394;5.454;2023-07-13T16:38:23;23.70;63.00
26821;DHT22;37186;51.394;5.454;2023-07-13T16:41:25;23.60;63.00
26821;DHT22;37186;51.394;5.454;2023-07-13T16:44:26;23.60;63.00
26821;DHT22;37186;51.394;5.454;2023-07-13T16:47:28;23.60;63.00
26821;DHT22;37186;51.394;5.454;2023-07-13T16:50:33;23.50;63.00
26821;DHT22;37186;51.394;5.454;2023-07-13T16:53:34;23.50;62.90
26821;DHT22;37186;51.394;5.454;2023-07-13T16:56:34;23.40;62.80
26821;DHT22;37186;51.394;5.454;2023-07-13T16:59:35;23.40;62.80
26821;DHT22;37186;51.394;5.454;2023-07-13T17:02:37;23.40;62.80
26821;DHT22;37186;51.394;5.454;2023-07-13T17:05:42;23.30;62.80
26821;DHT22;37186;51.394;5.454;2023-07-13T17:08:43;23.30;62.90
26821;DHT22;37186;51.394;5.454;2023-07-13T17:11:45;23.20;62.80
26821;DHT22;37186;51.394;5.454;2023-07-13T17:14:46;23.20;63.10
26821;DHT22;37186;51.394;5.454;2023-07-13T17:17:50;23.10;63.10
26821;DHT22;37186;51.394;5.454;2023-07-13T17:20:53;23.10;63.10
26821;DHT22;37186;51.394;5.454;2023-07-13T17:23:53;23.00;63.30
26821;DHT22;37186;51.394;5.454;2023-07-13T17:26:54;23.00;63.40
26821;DHT22;37186;51.394;5.454;2023-07-13T17:29:57;22.90;63.40
26821;DHT22;37186;51.394;5.454;2023-07-13T17:32:58;22.90;63.40
26821;DHT22;37186;51.394;5.454;2023-07-13T17:36:02;22.90;63.70
26821;DHT22;37186;51.394;5.454;2023-07-13T17:39:13;22.90;63.70
26821;DHT22;37186;51.394;5.454;2023-07-13T17:42:14;22.80;63.70
26821;DHT22;37186;51.394;5.454;2023-07-13T17:45:14;22.80;63.80
26821;DHT22;37186;51.394;5.454;2023-07-13T17:48:19;22.80;63.80
26821;DHT22;37186;51.394;5.454;2023-07-13T17:51:20;22.90;64.40
26821;DHT22;37186;51.394;5.454;2023-07-13T17:54:23;22.80;64.10
26821;DHT22;37186;51.394;5.454;2023-07-13T17:57:26;22.90;64.20
26821;DHT22;37186;51.394;5.454;2023-07-13T18:00:32;22.90;64.40
26821;DHT22;37186;51.394;5.454;2023-07-13T18:03:39;22.90;64.30
26821;DHT22;37186;51.394;5.454;2023-07-13T18:06:49;22.90;64.20
26821;DHT22;37186;51.394;5.454;2023-07-13T18:09:53;22.90;64.20
26821;DHT22;37186;51.394;5.454;2023-07-13T18:12:53;22.90;64.20
26821;DHT22;37186;51.394;5.454;2023-07-13T18:15:54;22.90;64.20
26821;DHT22;37186;51.394;5.454;2023-07-13T18:18:58;22.90;64.20
26821;DHT22;37186;51.394;5.454;2023-07-13T18:22:00;23.00;64.20
26821;DHT22;37186;51.394;5.454;2023-07-13T18:25:11;22.90;64.00
26821;DHT22;37186;51.394;5.454;2023-07-13T18:28:13;22.90;63.90
26821;DHT22;37186;51.394;5.454;2023-07-13T18:31:19;22.90;64.00
26821;DHT22;37186;51.394;5.454;2023-07-13T18:34:20;22.90;63.90
26821;DHT22;37186;51.394;5.454;2023-07-13T18:37:22;22.90;63.90
26821;DHT22;37186;51.394;5.454;2023-07-13T18:40:23;22.90;63.90
26821;DHT22;37186;51.394;5.454;2023-07-13T18:43:29;22.80;63.80
26821;DHT22;37186;51.394;5.454;2023-07-13T18:46:31;22.90;63.90
26821;DHT22;37186;51.394;5.454;2023-07-13T18:49:34;22.80;63.80
26821;DHT22;37186;51.394;5.454;2023-07-13T18:52:34;22.80;63.90
26821;DHT22;37186;51.394;5.454;2023-07-13T18:55:35;22.80;63.90
26821;DHT22;37186;51.394;5.454;2023-07-13T18:58:36;22.70;63.80
26821;DHT22;37186;51.394;5.454;2023-07-13T19:01:37;22.70;63.80
26821;DHT22;37186;51.394;5.454;2023-07-13T19:04:38;22.70;63.80
26821;DHT22;37186;51.394;5.454;2023-07-13T19:07:39;22.70;63.90
26821;DHT22;37186;51.394;5.454;2023-07-13T19:10:39;22.70;64.00
26821;DHT22;37186;51.394;5.454;2023-07-13T19:13:41;22.70;63.90
26821;DHT22;37186;51.394;5.454;2023-07-13T19:16:41;22.60;64.00
26821;DHT22;37186;51.394;5.454;2023-07-13T19:19:42;22.60;64.00
26821;DHT22;37186;51.394;5.454;2023-07-13T19:22:45;22.60;64.00
26821;DHT22;37186;51.394;5.454;2023-07-13T19:25:46;22.60;64.00
26821;DHT22;37186;51.394;5.454;2023-07-13T19:28:49;22.50;64.00
26821;DHT22;37186;51.394;5.454;2023-07-13T19:31:51;22.50;64.20
26821;DHT22;37186;51.394;5.454;2023-07-13T19:34:51;22.50;64.20
26821;DHT22;37186;51.394;5.454;2023-07-13T19:37:53;22.50;64.20
26821;DHT22;37186;51.394;5.454;2023-07-13T19:40:53;22.50;64.20